sensor_id;sensor_type;location;lat;lon;timestamp;P1;durP1;ratioP1;P2;durP2;ratioP2
49396;SDS011;35615;41.410;2.194;2023-09-08T00:00:57;15.43;;;6.82;;
49396;SDS011;35615;41.410;2.194;2023-09-08T00:03:24;11.98;;;6.88;;
49396;SDS011;35615;41.410;2.194;2023-09-08T00:05:53;14.18;;;7.40;;
49396;SDS011;35615;41.410;2.194;2023-09-08T00:08:20;13.13;;;6.93;;
49396;SDS011;35615;41.410;2.194;2023-09-08T00:10:49;19.23;;;7.47;;
49396;SDS011;35615;41.410;2.194;2023-09-08T00:13:16;10.13;;;6.55;;
49396;SDS011;35615;41.410;2.194;2023-09-08T00:15:43;14.43;;;6.97;;
49396;SDS011;35615;41.410;2.194;2023-09-08T00:18:14;12.57;;;6.50;;
49396;SDS011;35615;41.410;2.194;2023-09-08T00:20:41;16.17;;;6.78;;
49396;SDS011;35615;41.410;2.194;2023-09-08T00:23:09;12.25;;;6.70;;
49396;SDS011;35615;41.410;2.194;2023-09-08T00:25:36;10.65;;;6.68;;
49396;SDS011;35615;41.410;2.194;2023-09-08T00:28:06;9.35;;;6.47;;
49396;SDS011;35615;41.410;2.194;2023-09-08T00:30:33;11.60;;;7.20;;
49396;SDS011;35615;41.410;2.194;2023-09-08T00:33:00;12.18;;;6.90;;
49396;SDS011;35615;41.410;2.194;2023-09-08T00:35:28;14.48;;;6.90;;
49396;SDS011;35615;41.410;2.194;2023-09-08T00:37:56;13.63;;;6.25;;
49396;SDS011;35615;41.410;2.194;2023-09-08T00:40:23;13.80;;;7.15;;
49396;SDS011;35615;41.410;2.194;2023-09-08T00:42:52;16.85;;;6.95;;
49396;SDS011;35615;41.410;2.194;2023-09-08T00:45:19;19.60;;;6.78;;
49396;SDS011;35615;41.410;2.194;2023-09-08T00:47:47;16.27;;;7.28;;
49396;SDS011;35615;41.410;2.194;2023-09-08T00:50:15;13.07;;;6.43;;
49396;SDS011;35615;41.410;2.194;2023-09-08T00:52:42;14.35;;;7.32;;
49396;SDS011;35615;41.410;2.194;2023-09-08T00:55:10;14.15;;;6.90;;
49396;SDS011;35615;41.410;2.194;2023-09-08T00:57:37;15.27;;;7.72;;
49396;SDS011;35615;41.410;2.194;2023-09-08T01:00:05;12.20;;;6.30;;
49396;SDS011;35615;41.410;2.194;2023-09-08T01:02:33;11.07;;;6.57;;
49396;SDS011;35615;41.410;2.194;2023-09-08T01:05:00;13.60;;;6.22;;
49396;SDS011;35615;41.410;2.194;2023-09-08T01:07:27;13.88;;;8.18;;
49396;SDS011;35615;41.410;2.194;2023-09-08T01:09:57;11.23;;;6.22;;
49396;SDS011;35615;41.410;2.194;2023-09-08T01:12:30;10.85;;;6.78;;
49396;SDS011;35615;41.410;2.194;2023-09-08T01:14:57;13.63;;;6.63;;
49396;SDS011;35615;41.410;2.194;2023-09-08T01:17:25;15.93;;;6.90;;
49396;SDS011;35615;41.410;2.194;2023-09-08T01:19:55;11.55;;;6.47;;
49396;SDS011;35615;41.410;2.194;2023-09-08T01:25:08;12.25;;;6.30;;
49396;SDS011;35615;41.410;2.194;2023-09-08T01:27:38;13.13;;;6.82;;
49396;SDS011;35615;41.410;2.194;2023-09-08T01:30:10;9.55;;;6.75;;
49396;SDS011;35615;41.410;2.194;2023-09-08T01:32:40;14.13;;;6.57;;
49396;SDS011;35615;41.410;2.194;2023-09-08T01:35:08;12.77;;;7.18;;
49396;SDS011;35615;41.410;2.194;2023-09-08T01:37:39;10.65;;;6.60;;
49396;SDS011;35615;41.410;2.194;2023-09-08T01:40:08;12.18;;;6.03;;
49396;SDS011;35615;41.410;2.194;2023-09-08T01:42:37;13.68;;;6.32;;
49396;SDS011;35615;41.410;2.194;2023-09-08T01:45:06;13.23;;;6.38;;
49396;SDS011;35615;41.410;2.194;2023-09-08T01:47:34;11.27;;;6.47;;
49396;SDS011;35615;41.410;2.194;2023-09-08T01:50:02;12.73;;;5.85;;
49396;SDS011;35615;41.410;2.194;2023-09-08T01:52:29;12.02;;;5.88;;
49396;SDS011;35615;41.410;2.194;2023-09-08T01:55:00;8.52;;;6.28;;
49396;SDS011;35615;41.410;2.194;2023-09-08T01:57:28;9.27;;;6.82;;
49396;SDS011;35615;41.410;2.194;2023-09-08T02:00:01;11.10;;;6.43;;
49396;SDS011;35615;41.410;2.194;2023-09-08T02:02:37;11.85;;;7.15;;
49396;SDS011;35615;41.410;2.194;2023-09-08T02:05:05;21.10;;;7.45;;
49396;SDS011;35615;41.410;2.194;2023-09-08T02:07:33;9.50;;;6.65;;
49396;SDS011;35615;41.410;2.194;2023-09-08T02:10:00;12.07;;;8.43;;
49396;SDS011;35615;41.410;2.194;2023-09-08T02:12:28;17.50;;;9.20;;
49396;SDS011;35615;41.410;2.194;2023-09-08T02:14:55;12.55;;;8.73;;
49396;SDS011;35615;41.410;2.194;2023-09-08T02:17:23;17.88;;;8.93;;
49396;SDS011;35615;41.410;2.194;2023-09-08T02:19:50;18.42;;;10.25;;
49396;SDS011;35615;41.410;2.194;2023-09-08T02:22:17;16.58;;;9.13;;
49396;SDS011;35615;41.410;2.194;2023-09-08T02:24:45;12.82;;;9.48;;
49396;SDS011;35615;41.410;2.194;2023-09-08T02:27:12;13.77;;;8.82;;
49396;SDS011;35615;41.410;2.194;2023-09-08T02:29:39;17.45;;;8.32;;
49396;SDS011;35615;41.410;2.194;2023-09-08T02:32:06;14.20;;;7.95;;
49396;SDS011;35615;41.410;2.194;2023-09-08T02:34:35;16.50;;;8.25;;
49396;SDS011;35615;41.410;2.194;2023-09-08T02:37:06;15.38;;;8.43;;
49396;SDS011;35615;41.410;2.194;2023-09-08T02:39:34;12.30;;;7.85;;
49396;SDS011;35615;41.410;2.194;2023-09-08T02:42:01;12.20;;;8.77;;
49396;SDS011;35615;41.410;2.194;2023-09-08T02:44:29;12.52;;;7.75;;
49396;SDS011;35615;41.410;2.194;2023-09-08T02:46:57;12.82;;;8.13;;
49396;SDS011;35615;41.410;2.194;2023-09-08T02:49:24;11.82;;;7.97;;
49396;SDS011;35615;41.410;2.194;2023-09-08T02:51:52;16.75;;;8.23;;
49396;SDS011;35615;41.410;2.194;2023-09-08T02:54:19;12.27;;;8.27;;
49396;SDS011;35615;41.410;2.194;2023-09-08T02:56:47;14.52;;;8.23;;
49396;SDS011;35615;41.410;2.194;2023-09-08T02:59:14;18.73;;;9.18;;
49396;SDS011;35615;41.410;2.194;2023-09-08T03:01:41;18.38;;;8.93;;
49396;SDS011;35615;41.410;2.194;2023-09-08T03:04:09;18.85;;;8.95;;
49396;SDS011;35615;41.410;2.194;2023-09-08T03:06:36;18.90;;;9.15;;
49396;SDS011;35615;41.410;2.194;2023-09-08T03:09:05;17.10;;;9.13;;
49396;SDS011;35615;41.410;2.194;2023-09-08T03:11:33;19.45;;;9.77;;
49396;SDS011;35615;41.410;2.194;2023-09-08T03:14:01;15.05;;;9.20;;
49396;SDS011;35615;41.410;2.194;2023-09-08T03:16:29;14.90;;;8.93;;
49396;SDS011;35615;41.410;2.194;2023-09-08T03:18:58;17.50;;;9.02;;
49396;SDS011;35615;41.410;2.194;2023-09-08T03:21:26;13.68;;;8.50;;
49396;SDS011;35615;41.410;2.194;2023-09-08T03:23:53;19.45;;;9.70;;
49396;SDS011;35615;41.410;2.194;2023-09-08T03:26:24;14.10;;;9.05;;
49396;SDS011;35615;41.410;2.194;2023-09-08T03:28:51;17.13;;;8.90;;
49396;SDS011;35615;41.410;2.194;2023-09-08T03:31:19;14.98;;;8.05;;
49396;SDS011;35615;41.410;2.194;2023-09-08T03:33:46;26.40;;;9.23;;
49396;SDS011;35615;41.410;2.194;2023-09-08T03:36:14;14.73;;;8.85;;
49396;SDS011;35615;41.410;2.194;2023-09-08T03:38:42;20.58;;;8.68;;
49396;SDS011;35615;41.410;2.194;2023-09-08T03:41:10;15.52;;;8.15;;
49396;SDS011;35615;41.410;2.194;2023-09-08T03:43:38;23.17;;;9.23;;
49396;SDS011;35615;41.410;2.194;2023-09-08T03:46:05;15.23;;;8.35;;
49396;SDS011;35615;41.410;2.194;2023-09-08T03:48:33;11.43;;;8.55;;
49396;SDS011;35615;41.410;2.194;2023-09-08T03:51:00;13.70;;;8.13;;
49396;SDS011;35615;41.410;2.194;2023-09-08T03:53:28;14.63;;;8.50;;
49396;SDS011;35615;41.410;2.194;2023-09-08T03:55:55;14.77;;;8.93;;
49396;SDS011;35615;41.410;2.194;2023-09-08T03:58:24;14.63;;;9.82;;
49396;SDS011;35615;41.410;2.194;2023-09-08T04:00:51;19.00;;;9.65;;
49396;SDS011;35615;41.410;2.194;2023-09-08T04:03:19;21.38;;;11.20;;
49396;SDS011;35615;41.410;2.194;2023-09-08T04:05:47;16.67;;;9.82;;
49396;SDS011;35615;41.410;2.194;2023-09-08T04:08:16;18.40;;;10.35;;
49396;SDS011;35615;41.410;2.194;2023-09-08T04:10:43;15.85;;;10.00;;
49396;SDS011;35615;41.410;2.194;2023-09-08T04:13:10;18.02;;;10.27;;
49396;SDS011;35615;41.410;2.194;2023-09-08T04:15:38;21.15;;;10.27;;
49396;SDS011;35615;41.410;2.194;2023-09-08T04:18:05;19.08;;;9.88;;
49396;SDS011;35615;41.410;2.194;2023-09-08T04:20:33;17.42;;;8.88;;
49396;SDS011;35615;41.410;2.194;2023-09-08T04:23:00;13.35;;;9.50;;
49396;SDS011;35615;41.410;2.194;2023-09-08T04:25:28;17.42;;;10.52;;
49396;SDS011;35615;41.410;2.194;2023-09-08T04:27:55;17.63;;;10.38;;
49396;SDS011;35615;41.410;2.194;2023-09-08T04:30:23;16.33;;;10.27;;
49396;SDS011;35615;41.410;2.194;2023-09-08T04:32:51;15.63;;;10.27;;
49396;SDS011;35615;41.410;2.194;2023-09-08T04:35:20;18.75;;;10.45;;
49396;SDS011;35615;41.410;2.194;2023-09-08T04:37:50;21.00;;;10.60;;
49396;SDS011;35615;41.410;2.194;2023-09-08T04:40:18;18.25;;;10.63;;
49396;SDS011;35615;41.410;2.194;2023-09-08T04:42:46;14.55;;;9.95;;
49396;SDS011;35615;41.410;2.194;2023-09-08T04:45:16;19.15;;;10.35;;
49396;SDS011;35615;41.410;2.194;2023-09-08T04:47:47;16.13;;;9.10;;
49396;SDS011;35615;41.410;2.194;2023-09-08T04:50:16;13.88;;;9.00;;
49396;SDS011;35615;41.410;2.194;2023-09-08T04:52:45;17.75;;;9.32;;
49396;SDS011;35615;41.410;2.194;2023-09-08T04:55:14;17.05;;;9.82;;
49396;SDS011;35615;41.410;2.194;2023-09-08T04:57:42;14.52;;;9.07;;
49396;SDS011;35615;41.410;2.194;2023-09-08T05:00:13;21.50;;;8.98;;
49396;SDS011;35615;41.410;2.194;2023-09-08T05:02:40;17.15;;;9.20;;
49396;SDS011;35615;41.410;2.194;2023-09-08T05:05:10;19.92;;;8.95;;
49396;SDS011;35615;41.410;2.194;2023-09-08T05:07:40;19.23;;;8.68;;
49396;SDS011;35615;41.410;2.194;2023-09-08T05:10:08;17.95;;;8.95;;
49396;SDS011;35615;41.410;2.194;2023-09-08T05:12:40;13.13;;;7.90;;
49396;SDS011;35615;41.410;2.194;2023-09-08T05:15:20;19.00;;;8.48;;
49396;SDS011;35615;41.410;2.194;2023-09-08T05:17:51;17.67;;;7.97;;
49396;SDS011;35615;41.410;2.194;2023-09-08T05:20:23;17.55;;;8.30;;
49396;SDS011;35615;41.410;2.194;2023-09-08T05:22:52;21.77;;;8.30;;
49396;SDS011;35615;41.410;2.194;2023-09-08T05:25:19;12.82;;;7.82;;
49396;SDS011;35615;41.410;2.194;2023-09-08T05:27:48;10.80;;;7.57;;
49396;SDS011;35615;41.410;2.194;2023-09-08T05:30:16;18.15;;;7.47;;
49396;SDS011;35615;41.410;2.194;2023-09-08T05:32:45;17.23;;;8.50;;
49396;SDS011;35615;41.410;2.194;2023-09-08T05:35:15;13.68;;;7.90;;
49396;SDS011;35615;41.410;2.194;2023-09-08T05:37:44;16.58;;;7.68;;
49396;SDS011;35615;41.410;2.194;2023-09-08T05:40:13;17.70;;;7.57;;
49396;SDS011;35615;41.410;2.194;2023-09-08T05:42:40;13.68;;;6.95;;
49396;SDS011;35615;41.410;2.194;2023-09-08T05:45:11;14.85;;;7.80;;
49396;SDS011;35615;41.410;2.194;2023-09-08T05:47:39;14.98;;;6.78;;
49396;SDS011;35615;41.410;2.194;2023-09-08T05:50:09;13.00;;;7.13;;
49396;SDS011;35615;41.410;2.194;2023-09-08T05:52:38;17.75;;;7.10;;
49396;SDS011;35615;41.410;2.194;2023-09-08T05:55:09;19.02;;;7.90;;
49396;SDS011;35615;41.410;2.194;2023-09-08T05:57:50;12.80;;;6.75;;
49396;SDS011;35615;41.410;2.194;2023-09-08T06:00:21;13.82;;;7.55;;
49396;SDS011;35615;41.410;2.194;2023-09-08T06:02:51;19.02;;;7.35;;
49396;SDS011;35615;41.410;2.194;2023-09-08T06:05:20;17.60;;;7.18;;
49396;SDS011;35615;41.410;2.194;2023-09-08T06:07:47;14.68;;;7.00;;
49396;SDS011;35615;41.410;2.194;2023-09-08T06:10:32;9.75;;;6.22;;
49396;SDS011;35615;41.410;2.194;2023-09-08T06:13:01;13.73;;;6.55;;
49396;SDS011;35615;41.410;2.194;2023-09-08T06:15:29;14.63;;;6.32;;
49396;SDS011;35615;41.410;2.194;2023-09-08T06:18:01;25.73;;;7.22;;
49396;SDS011;35615;41.410;2.194;2023-09-08T06:20:29;15.40;;;6.10;;
49396;SDS011;35615;41.410;2.194;2023-09-08T06:22:59;17.35;;;6.13;;
49396;SDS011;35615;41.410;2.194;2023-09-08T06:25:26;10.38;;;6.43;;
49396;SDS011;35615;41.410;2.194;2023-09-08T06:27:55;19.13;;;7.68;;
49396;SDS011;35615;41.410;2.194;2023-09-08T06:30:26;16.80;;;6.18;;
49396;SDS011;35615;41.410;2.194;2023-09-08T06:32:55;14.10;;;6.88;;
49396;SDS011;35615;41.410;2.194;2023-09-08T06:35:25;17.77;;;6.07;;
49396;SDS011;35615;41.410;2.194;2023-09-08T06:37:53;19.10;;;6.40;;
49396;SDS011;35615;41.410;2.194;2023-09-08T06:40:21;13.07;;;6.40;;
49396;SDS011;35615;41.410;2.194;2023-09-08T06:42:48;11.15;;;6.03;;
49396;SDS011;35615;41.410;2.194;2023-09-08T06:45:25;11.98;;;6.47;;
49396;SDS011;35615;41.410;2.194;2023-09-08T06:47:53;22.10;;;6.68;;
49396;SDS011;35615;41.410;2.194;2023-09-08T06:50:23;16.70;;;6.40;;
49396;SDS011;35615;41.410;2.194;2023-09-08T06:52:51;16.35;;;6.40;;
49396;SDS011;35615;41.410;2.194;2023-09-08T06:55:20;15.63;;;6.97;;
49396;SDS011;35615;41.410;2.194;2023-09-08T06:57:49;17.92;;;6.63;;
49396;SDS011;35615;41.410;2.194;2023-09-08T07:00:17;17.05;;;8.00;;
49396;SDS011;35615;41.410;2.194;2023-09-08T07:02:47;9.25;;;6.80;;
49396;SDS011;35615;41.410;2.194;2023-09-08T07:05:17;13.73;;;6.90;;
49396;SDS011;35615;41.410;2.194;2023-09-08T07:07:45;20.25;;;6.32;;
49396;SDS011;35615;41.410;2.194;2023-09-08T07:10:16;14.93;;;5.88;;
49396;SDS011;35615;41.410;2.194;2023-09-08T07:12:43;17.10;;;6.38;;
49396;SDS011;35615;41.410;2.194;2023-09-08T07:15:12;16.00;;;6.40;;
49396;SDS011;35615;41.410;2.194;2023-09-08T07:17:42;17.08;;;6.85;;
49396;SDS011;35615;41.410;2.194;2023-09-08T07:20:10;18.05;;;6.20;;
49396;SDS011;35615;41.410;2.194;2023-09-08T07:22:39;14.32;;;6.60;;
49396;SDS011;35615;41.410;2.194;2023-09-08T07:25:08;21.85;;;7.05;;
49396;SDS011;35615;41.410;2.194;2023-09-08T07:27:36;12.43;;;6.45;;
49396;SDS011;35615;41.410;2.194;2023-09-08T07:30:05;17.85;;;6.90;;
49396;SDS011;35615;41.410;2.194;2023-09-08T07:32:34;13.77;;;6.15;;
49396;SDS011;35615;41.410;2.194;2023-09-08T07:35:01;17.95;;;7.20;;
49396;SDS011;35615;41.410;2.194;2023-09-08T07:37:29;12.60;;;6.28;;
49396;SDS011;35615;41.410;2.194;2023-09-08T07:39:56;13.10;;;5.93;;
49396;SDS011;35615;41.410;2.194;2023-09-08T07:42:24;14.73;;;6.43;;
49396;SDS011;35615;41.410;2.194;2023-09-08T07:44:53;7.15;;;5.70;;
49396;SDS011;35615;41.410;2.194;2023-09-08T07:47:20;19.15;;;6.50;;
49396;SDS011;35615;41.410;2.194;2023-09-08T07:49:49;16.98;;;6.63;;
49396;SDS011;35615;41.410;2.194;2023-09-08T07:52:16;13.43;;;6.38;;
49396;SDS011;35615;41.410;2.194;2023-09-08T07:54:44;14.90;;;6.10;;
49396;SDS011;35615;41.410;2.194;2023-09-08T07:57:12;10.40;;;6.72;;
49396;SDS011;35615;41.410;2.194;2023-09-08T07:59:39;14.60;;;6.25;;
49396;SDS011;35615;41.410;2.194;2023-09-08T08:02:09;23.45;;;6.68;;
49396;SDS011;35615;41.410;2.194;2023-09-08T08:04:38;11.55;;;6.32;;
49396;SDS011;35615;41.410;2.194;2023-09-08T08:07:06;11.57;;;6.18;;
49396;SDS011;35615;41.410;2.194;2023-09-08T08:09:34;10.63;;;6.22;;
49396;SDS011;35615;41.410;2.194;2023-09-08T08:12:02;12.77;;;7.00;;
49396;SDS011;35615;41.410;2.194;2023-09-08T08:14:30;19.42;;;6.97;;
49396;SDS011;35615;41.410;2.194;2023-09-08T08:16:59;12.10;;;6.43;;
49396;SDS011;35615;41.410;2.194;2023-09-08T08:19:30;14.02;;;6.78;;
49396;SDS011;35615;41.410;2.194;2023-09-08T08:22:00;14.43;;;6.35;;
49396;SDS011;35615;41.410;2.194;2023-09-08T08:24:30;14.95;;;6.90;;
49396;SDS011;35615;41.410;2.194;2023-09-08T08:26:58;16.40;;;6.22;;
49396;SDS011;35615;41.410;2.194;2023-09-08T08:29:34;15.43;;;6.22;;
49396;SDS011;35615;41.410;2.194;2023-09-08T08:32:05;13.98;;;5.93;;
49396;SDS011;35615;41.410;2.194;2023-09-08T08:34:33;14.80;;;6.03;;
49396;SDS011;35615;41.410;2.194;2023-09-08T08:37:04;12.30;;;5.97;;
49396;SDS011;35615;41.410;2.194;2023-09-08T08:39:32;7.47;;;5.25;;
49396;SDS011;35615;41.410;2.194;2023-09-08T08:42:08;11.32;;;6.05;;
49396;SDS011;35615;41.410;2.194;2023-09-08T08:44:53;12.82;;;5.75;;
49396;SDS011;35615;41.410;2.194;2023-09-08T08:47:24;11.80;;;5.70;;
49396;SDS011;35615;41.410;2.194;2023-09-08T08:50:09;12.55;;;5.35;;
49396;SDS011;35615;41.410;2.194;2023-09-08T08:52:38;8.82;;;5.70;;
49396;SDS011;35615;41.410;2.194;2023-09-08T08:55:07;18.52;;;6.43;;
49396;SDS011;35615;41.410;2.194;2023-09-08T08:57:46;15.45;;;5.20;;
49396;SDS011;35615;41.410;2.194;2023-09-08T09:00:22;8.20;;;5.38;;
49396;SDS011;35615;41.410;2.194;2023-09-08T09:02:53;11.82;;;5.45;;
49396;SDS011;35615;41.410;2.194;2023-09-08T09:05:43;13.25;;;5.32;;
49396;SDS011;35615;41.410;2.194;2023-09-08T09:08:16;9.43;;;4.57;;
49396;SDS011;35615;41.410;2.194;2023-09-08T09:10:45;12.40;;;5.32;;
49396;SDS011;35615;41.410;2.194;2023-09-08T09:13:13;22.35;;;5.43;;
49396;SDS011;35615;41.410;2.194;2023-09-08T09:15:41;20.15;;;6.22;;
49396;SDS011;35615;41.410;2.194;2023-09-08T09:18:14;8.05;;;4.75;;
49396;SDS011;35615;41.410;2.194;2023-09-08T09:20:53;8.18;;;4.68;;
49396;SDS011;35615;41.410;2.194;2023-09-08T09:23:35;5.35;;;4.43;;
49396;SDS011;35615;41.410;2.194;2023-09-08T09:26:03;9.48;;;4.53;;
49396;SDS011;35615;41.410;2.194;2023-09-08T09:28:31;5.75;;;5.03;;
49396;SDS011;35615;41.410;2.194;2023-09-08T09:31:00;7.35;;;4.53;;
49396;SDS011;35615;41.410;2.194;2023-09-08T09:33:35;6.45;;;5.15;;
49396;SDS011;35615;41.410;2.194;2023-09-08T09:36:03;6.45;;;4.90;;
49396;SDS011;35615;41.410;2.194;2023-09-08T09:38:34;17.73;;;5.25;;
49396;SDS011;35615;41.410;2.194;2023-09-08T09:41:02;16.17;;;5.00;;
49396;SDS011;35615;41.410;2.194;2023-09-08T09:43:32;14.57;;;4.93;;
49396;SDS011;35615;41.410;2.194;2023-09-08T09:46:01;13.00;;;5.47;;
49396;SDS011;35615;41.410;2.194;2023-09-08T09:48:29;11.43;;;5.07;;
49396;SDS011;35615;41.410;2.194;2023-09-08T09:51:15;10.35;;;4.50;;
49396;SDS011;35615;41.410;2.194;2023-09-08T09:53:46;9.70;;;4.97;;
49396;SDS011;35615;41.410;2.194;2023-09-08T09:56:18;18.08;;;4.95;;
49396;SDS011;35615;41.410;2.194;2023-09-08T09:58:48;9.90;;;4.72;;
49396;SDS011;35615;41.410;2.194;2023-09-08T10:01:18;7.22;;;5.72;;
49396;SDS011;35615;41.410;2.194;2023-09-08T10:03:46;8.07;;;5.28;;
49396;SDS011;35615;41.410;2.194;2023-09-08T10:06:16;6.32;;;5.10;;
49396;SDS011;35615;41.410;2.194;2023-09-08T10:08:47;13.60;;;8.25;;
49396;SDS011;35615;41.410;2.194;2023-09-08T10:11:16;6.78;;;4.72;;
49396;SDS011;35615;41.410;2.194;2023-09-08T10:13:51;9.43;;;6.03;;
49396;SDS011;35615;41.410;2.194;2023-09-08T10:16:26;7.88;;;4.28;;
49396;SDS011;35615;41.410;2.194;2023-09-08T10:18:58;7.78;;;4.22;;
49396;SDS011;35615;41.410;2.194;2023-09-08T10:21:26;11.50;;;4.78;;
49396;SDS011;35615;41.410;2.194;2023-09-08T10:23:59;7.57;;;4.60;;
49396;SDS011;35615;41.410;2.194;2023-09-08T10:26:36;10.93;;;6.95;;
49396;SDS011;35615;41.410;2.194;2023-09-08T10:29:16;7.10;;;3.60;;
49396;SDS011;35615;41.410;2.194;2023-09-08T10:31:48;4.47;;;3.72;;
49396;SDS011;35615;41.410;2.194;2023-09-08T10:34:16;9.70;;;4.38;;
49396;SDS011;35615;41.410;2.194;2023-09-08T10:36:48;22.33;;;5.13;;
49396;SDS011;35615;41.410;2.194;2023-09-08T10:39:35;7.07;;;3.90;;
49396;SDS011;35615;41.410;2.194;2023-09-08T10:47:24;7.63;;;5.38;;
49396;SDS011;35615;41.410;2.194;2023-09-08T10:49:53;5.65;;;3.58;;
49396;SDS011;35615;41.410;2.194;2023-09-08T10:52:27;6.93;;;4.85;;
49396;SDS011;35615;41.410;2.194;2023-09-08T10:54:57;5.13;;;3.33;;
49396;SDS011;35615;41.410;2.194;2023-09-08T10:57:25;5.65;;;3.05;;
49396;SDS011;35615;41.410;2.194;2023-09-08T10:59:53;8.27;;;4.10;;
49396;SDS011;35615;41.410;2.194;2023-09-08T11:02:34;6.85;;;4.30;;
49396;SDS011;35615;41.410;2.194;2023-09-08T11:05:23;11.30;;;4.15;;
49396;SDS011;35615;41.410;2.194;2023-09-08T11:07:51;5.10;;;3.85;;
49396;SDS011;35615;41.410;2.194;2023-09-08T11:10:21;10.35;;;4.75;;
49396;SDS011;35615;41.410;2.194;2023-09-08T11:12:50;4.65;;;3.35;;
49396;SDS011;35615;41.410;2.194;2023-09-08T11:15:19;4.97;;;3.75;;
49396;SDS011;35615;41.410;2.194;2023-09-08T11:17:50;7.82;;;3.78;;
49396;SDS011;35615;41.410;2.194;2023-09-08T11:20:26;10.40;;;5.70;;
49396;SDS011;35615;41.410;2.194;2023-09-08T11:22:57;5.70;;;3.45;;
49396;SDS011;35615;41.410;2.194;2023-09-08T11:25:29;6.10;;;3.20;;
49396;SDS011;35615;41.410;2.194;2023-09-08T11:27:56;5.78;;;4.35;;
49396;SDS011;35615;41.410;2.194;2023-09-08T11:30:27;8.20;;;2.97;;
49396;SDS011;35615;41.410;2.194;2023-09-08T11:32:55;8.50;;;3.55;;
49396;SDS011;35615;41.410;2.194;2023-09-08T11:35:26;9.13;;;3.42;;
49396;SDS011;35615;41.410;2.194;2023-09-08T11:37:58;7.00;;;3.00;;
49396;SDS011;35615;41.410;2.194;2023-09-08T11:40:29;4.72;;;3.33;;
49396;SDS011;35615;41.410;2.194;2023-09-08T11:43:03;4.18;;;2.75;;
49396;SDS011;35615;41.410;2.194;2023-09-08T11:45:36;4.20;;;3.13;;
49396;SDS011;35615;41.410;2.194;2023-09-08T11:48:09;3.10;;;2.60;;
49396;SDS011;35615;41.410;2.194;2023-09-08T11:50:37;7.30;;;3.20;;
49396;SDS011;35615;41.410;2.194;2023-09-08T11:53:04;7.20;;;3.10;;
49396;SDS011;35615;41.410;2.194;2023-09-08T11:55:37;4.32;;;2.72;;
49396;SDS011;35615;41.410;2.194;2023-09-08T11:58:05;5.05;;;2.95;;
49396;SDS011;35615;41.410;2.194;2023-09-08T12:00:32;4.40;;;3.40;;
49396;SDS011;35615;41.410;2.194;2023-09-08T12:03:11;5.10;;;3.72;;
49396;SDS011;35615;41.410;2.194;2023-09-08T12:05:39;3.33;;;3.03;;
49396;SDS011;35615;41.410;2.194;2023-09-08T12:08:08;4.20;;;3.38;;
49396;SDS011;35615;41.410;2.194;2023-09-08T12:10:41;4.47;;;3.20;;
49396;SDS011;35615;41.410;2.194;2023-09-08T12:13:23;4.85;;;3.42;;
49396;SDS011;35615;41.410;2.194;2023-09-08T12:15:53;9.52;;;3.63;;
49396;SDS011;35615;41.410;2.194;2023-09-08T12:18:28;9.55;;;5.70;;
49396;SDS011;35615;41.410;2.194;2023-09-08T12:21:06;4.57;;;3.97;;
49396;SDS011;35615;41.410;2.194;2023-09-08T12:23:34;4.38;;;3.97;;
49396;SDS011;35615;41.410;2.194;2023-09-08T12:26:24;12.93;;;5.40;;
49396;SDS011;35615;41.410;2.194;2023-09-08T12:28:53;7.90;;;4.13;;
49396;SDS011;35615;41.410;2.194;2023-09-08T12:31:22;16.52;;;5.88;;
49396;SDS011;35615;41.410;2.194;2023-09-08T12:33:52;11.82;;;6.00;;
49396;SDS011;35615;41.410;2.194;2023-09-08T12:36:20;9.45;;;4.78;;
49396;SDS011;35615;41.410;2.194;2023-09-08T12:38:47;10.95;;;5.28;;
49396;SDS011;35615;41.410;2.194;2023-09-08T12:41:17;6.05;;;3.63;;
49396;SDS011;35615;41.410;2.194;2023-09-08T12:43:52;9.23;;;3.80;;
49396;SDS011;35615;41.410;2.194;2023-09-08T12:46:21;8.30;;;3.97;;
49396;SDS011;35615;41.410;2.194;2023-09-08T12:48:50;8.00;;;3.80;;
49396;SDS011;35615;41.410;2.194;2023-09-08T12:51:23;9.52;;;4.18;;
49396;SDS011;35615;41.410;2.194;2023-09-08T12:53:51;5.32;;;3.75;;
49396;SDS011;35615;41.410;2.194;2023-09-08T12:56:21;9.57;;;4.10;;
49396;SDS011;35615;41.410;2.194;2023-09-08T12:58:54;5.78;;;4.40;;
49396;SDS011;35615;41.410;2.194;2023-09-08T13:01:23;4.53;;;3.40;;
49396;SDS011;35615;41.410;2.194;2023-09-08T13:03:51;4.45;;;3.65;;
49396;SDS011;35615;41.410;2.194;2023-09-08T13:06:26;3.60;;;3.33;;
49396;SDS011;35615;41.410;2.194;2023-09-08T13:08:57;4.72;;;3.60;;
49396;SDS011;35615;41.410;2.194;2023-09-08T13:11:31;6.45;;;3.90;;
49396;SDS011;35615;41.410;2.194;2023-09-08T13:13:59;3.92;;;3.50;;
49396;SDS011;35615;41.410;2.194;2023-09-08T13:16:32;6.82;;;3.72;;
49396;SDS011;35615;41.410;2.194;2023-09-08T13:19:00;11.85;;;3.80;;
49396;SDS011;35615;41.410;2.194;2023-09-08T13:21:33;4.47;;;4.07;;
49396;SDS011;35615;41.410;2.194;2023-09-08T13:24:06;7.63;;;4.03;;
49396;SDS011;35615;41.410;2.194;2023-09-08T13:26:35;5.38;;;4.05;;
49396;SDS011;35615;41.410;2.194;2023-09-08T13:29:14;5.65;;;3.80;;
49396;SDS011;35615;41.410;2.194;2023-09-08T13:31:56;9.07;;;3.80;;
49396;SDS011;35615;41.410;2.194;2023-09-08T13:34:29;6.43;;;3.40;;
49396;SDS011;35615;41.410;2.194;2023-09-08T13:37:08;4.35;;;3.95;;
49396;SDS011;35615;41.410;2.194;2023-09-08T13:39:40;7.18;;;3.83;;
49396;SDS011;35615;41.410;2.194;2023-09-08T13:42:10;6.00;;;3.75;;
49396;SDS011;35615;41.410;2.194;2023-09-08T13:44:59;7.78;;;4.15;;
49396;SDS011;35615;41.410;2.194;2023-09-08T13:47:43;4.40;;;4.00;;
49396;SDS011;35615;41.410;2.194;2023-09-08T13:50:23;5.88;;;3.63;;
49396;SDS011;35615;41.410;2.194;2023-09-08T13:52:55;8.32;;;3.92;;
49396;SDS011;35615;41.410;2.194;2023-09-08T13:55:35;8.80;;;3.65;;
49396;SDS011;35615;41.410;2.194;2023-09-08T13:58:13;7.97;;;4.25;;
49396;SDS011;35615;41.410;2.194;2023-09-08T14:00:40;11.02;;;4.43;;
49396;SDS011;35615;41.410;2.194;2023-09-08T14:03:21;5.57;;;4.25;;
49396;SDS011;35615;41.410;2.194;2023-09-08T14:05:51;14.07;;;4.60;;
49396;SDS011;35615;41.410;2.194;2023-09-08T14:08:21;4.97;;;3.97;;
49396;SDS011;35615;41.410;2.194;2023-09-08T14:11:18;5.15;;;4.45;;
49396;SDS011;35615;41.410;2.194;2023-09-08T14:14:12;6.53;;;4.75;;
49396;SDS011;35615;41.410;2.194;2023-09-08T14:16:47;6.55;;;4.25;;
49396;SDS011;35615;41.410;2.194;2023-09-08T14:19:14;11.57;;;4.72;;
49396;SDS011;35615;41.410;2.194;2023-09-08T14:21:47;7.93;;;4.90;;
49396;SDS011;35615;41.410;2.194;2023-09-08T14:24:15;8.55;;;4.40;;
49396;SDS011;35615;41.410;2.194;2023-09-08T14:27:01;6.70;;;4.28;;
49396;SDS011;35615;41.410;2.194;2023-09-08T14:29:35;9.70;;;4.80;;
49396;SDS011;35615;41.410;2.194;2023-09-08T14:32:08;8.93;;;4.10;;
49396;SDS011;35615;41.410;2.194;2023-09-08T14:34:36;7.30;;;4.30;;
49396;SDS011;35615;41.410;2.194;2023-09-08T14:37:08;8.02;;;4.40;;
49396;SDS011;35615;41.410;2.194;2023-09-08T14:39:39;8.18;;;4.03;;
49396;SDS011;35615;41.410;2.194;2023-09-08T14:42:06;9.13;;;3.95;;
49396;SDS011;35615;41.410;2.194;2023-09-08T14:44:37;7.88;;;4.47;;
49396;SDS011;35615;41.410;2.194;2023-09-08T14:47:05;6.15;;;3.83;;
49396;SDS011;35615;41.410;2.194;2023-09-08T14:49:36;11.60;;;4.63;;
49396;SDS011;35615;41.410;2.194;2023-09-08T14:52:06;6.22;;;4.00;;
49396;SDS011;35615;41.410;2.194;2023-09-08T14:54:40;16.77;;;5.32;;
49396;SDS011;35615;41.410;2.194;2023-09-08T14:57:13;4.97;;;4.35;;
49396;SDS011;35615;41.410;2.194;2023-09-08T14:59:41;8.13;;;4.90;;
49396;SDS011;35615;41.410;2.194;2023-09-08T15:02:17;5.28;;;4.03;;
49396;SDS011;35615;41.410;2.194;2023-09-08T15:05:01;6.95;;;4.85;;